Time;durP1;ratioP1;P1;durP2;ratioP2;P2;SDS_P1;SDS_P2;PMS_P1;PMS_P2;Temp;Humidity;BMP_temperature;BMP_pressure;BME280_temperature;BME280_humidity;BME280_pressure;Samples;Min_cycle;Max_cycle;Signal;HPM_P1;HPM_P2
2023/09/27 00:01:16;;;;;;;18.33;10.50;;;;;;;;;;4969682;28;20031;-76
2023/09/27 00:03:42;;;;;;;14.82;9.82;;;;;;;;;;4964552;28;20422;-76
2023/09/27 00:06:08;;;;;;;16.52;11.00;;;;;;;;;;4961475;28;20114;-75
2023/09/27 00:08:33;;;;;;;15.13;9.90;;;;;;;;;;4937252;28;20102;-76
2023/09/27 00:10:59;;;;;;;15.75;9.95;;;;;;;;;;4963420;28;20062;-76
2023/09/27 00:13:24;;;;;;;15.55;9.40;;;;;;;;;;4956869;28;20038;-76
2023/09/27 00:15:50;;;;;;;20.83;10.40;;;;;;;;;;4973655;28;20039;-76
2023/09/27 00:18:16;;;;;;;16.60;9.82;;;;;;;;;;4973371;28;20031;-76
2023/09/27 00:20:41;;;;;;;17.30;11.35;;;;;;;;;;4975257;28;20023;-76
2023/09/27 00:23:08;;;;;;;17.30;9.88;;;;;;;;;;4974336;28;20027;-76
2023/09/27 00:25:33;;;;;;;18.23;10.15;;;;;;;;;;4953309;28;20035;-74
2023/09/27 00:27:59;;;;;;;17.95;9.65;;;;;;;;;;4952186;29;20039;-76
2023/09/27 00:30:25;;;;;;;14.65;9.85;;;;;;;;;;4935341;29;20035;-77
2023/09/27 00:32:53;;;;;;;16.30;9.07;;;;;;;;;;4950789;29;20107;-76
2023/09/27 00:35:19;;;;;;;16.30;10.50;;;;;;;;;;4936771;29;20051;-76
2023/09/27 00:37:48;;;;;;;17.95;10.30;;;;;;;;;;4935566;29;20036;-75
2023/09/27 00:40:17;;;;;;;13.18;9.55;;;;;;;;;;4943882;28;20340;-76
2023/09/27 00:42:43;;;;;;;14.07;9.68;;;;;;;;;;4954516;28;20027;-76
2023/09/27 00:45:09;;;;;;;15.40;9.45;;;;;;;;;;4937651;29;20027;-75
2023/09/27 00:47:37;;;;;;;17.48;9.73;;;;;;;;;;4954010;29;20082;-75
2023/09/27 00:50:03;;;;;;;20.60;10.38;;;;;;;;;;4954053;28;20060;-75
2023/09/27 00:52:30;;;;;;;17.35;9.88;;;;;;;;;;4938919;29;20042;-75
2023/09/27 00:54:56;;;;;;;16.40;9.90;;;;;;;;;;4955562;28;20567;-76
2023/09/27 00:57:22;;;;;;;15.75;9.35;;;;;;;;;;4902520;29;20035;-75
2023/09/27 00:59:48;;;;;;;14.80;9.77;;;;;;;;;;4934595;29;20028;-76
2023/09/27 01:02:14;;;;;;;13.45;9.57;;;;;;;;;;4919210;29;20580;-76
2023/09/27 01:04:40;;;;;;;14.82;9.98;;;;;;;;;;4934863;29;20420;-75
2023/09/27 01:07:07;;;;;;;17.58;10.52;;;;;;;;;;4936302;29;20468;-75
2023/09/27 01:09:32;;;;;;;14.52;9.63;;;;;;;;;;4935065;29;20087;-75
2023/09/27 01:12:04;;;;;;;14.18;9.50;;;;;;;;;;4943030;28;20064;-76
2023/09/27 01:14:30;;;;;;;18.70;9.93;;;;;;;;;;4936482;29;20407;-75
2023/09/27 01:16:55;;;;;;;13.70;9.82;;;;;;;;;;4934974;29;20042;-75
2023/09/27 01:19:21;;;;;;;18.05;9.95;;;;;;;;;;4934117;29;20036;-76
2023/09/27 01:21:46;;;;;;;14.95;10.90;;;;;;;;;;4936863;29;20034;-76
2023/09/27 01:24:12;;;;;;;16.30;11.15;;;;;;;;;;4951342;29;20036;-75
2023/09/27 01:26:39;;;;;;;17.73;9.43;;;;;;;;;;4951514;29;20034;-76
2023/09/27 01:29:04;;;;;;;15.18;10.55;;;;;;;;;;4953260;28;20091;-75
2023/09/27 01:31:31;;;;;;;13.77;10.27;;;;;;;;;;4938215;28;20070;-76
2023/09/27 01:33:56;;;;;;;13.82;10.48;;;;;;;;;;4953675;28;20495;-76
2023/09/27 01:36:22;;;;;;;15.90;9.82;;;;;;;;;;4953997;28;20152;-78
2023/09/27 01:38:48;;;;;;;14.43;10.63;;;;;;;;;;4954788;28;20039;-76
2023/09/27 01:41:13;;;;;;;19.40;10.00;;;;;;;;;;4937883;29;20054;-76
2023/09/27 01:43:39;;;;;;;15.25;9.27;;;;;;;;;;4920946;28;20046;-76
2023/09/27 01:46:04;;;;;;;15.82;9.32;;;;;;;;;;4953726;28;20027;-75
2023/09/27 01:48:30;;;;;;;15.35;10.23;;;;;;;;;;4954630;28;20114;-74
2023/09/27 01:50:56;;;;;;;17.15;10.55;;;;;;;;;;4954984;29;20039;-75
2023/09/27 01:53:24;;;;;;;17.15;10.88;;;;;;;;;;4953918;28;20439;-75
2023/09/27 01:55:50;;;;;;;14.93;9.00;;;;;;;;;;4953743;29;20065;-75
2023/09/27 01:58:16;;;;;;;16.20;10.38;;;;;;;;;;4953547;28;20067;-75
2023/09/27 02:00:44;;;;;;;15.40;9.48;;;;;;;;;;4945376;28;20035;-74
2023/09/27 02:03:10;;;;;;;14.45;10.07;;;;;;;;;;4921937;29;20046;-75
2023/09/27 02:05:35;;;;;;;16.25;10.43;;;;;;;;;;4921908;29;20122;-75
2023/09/27 02:08:04;;;;;;;12.73;8.73;;;;;;;;;;4938770;29;20066;-74
2023/09/27 02:10:32;;;;;;;15.75;9.90;;;;;;;;;;4938540;29;20031;-75
2023/09/27 02:12:57;;;;;;;14.32;10.00;;;;;;;;;;4938549;29;20094;-75
2023/09/27 02:15:23;;;;;;;15.55;9.95;;;;;;;;;;4939147;29;20035;-74
2023/09/27 02:17:49;;;;;;;15.68;10.27;;;;;;;;;;4957484;28;20035;-75
2023/09/27 02:20:17;;;;;;;16.35;10.27;;;;;;;;;;4940147;28;20086;-75
2023/09/27 02:22:44;;;;;;;16.33;9.73;;;;;;;;;;4957516;28;20050;-74
2023/09/27 02:25:11;;;;;;;15.95;10.57;;;;;;;;;;4957462;28;20162;-75
2023/09/27 02:27:37;;;;;;;18.02;10.60;;;;;;;;;;4939854;28;20032;-75
2023/09/27 02:30:03;;;;;;;18.17;10.77;;;;;;;;;;4956812;28;20031;-75
2023/09/27 02:32:29;;;;;;;15.63;10.23;;;;;;;;;;4939547;28;20031;-75
2023/09/27 02:34:54;;;;;;;16.38;10.57;;;;;;;;;;4954326;28;20525;-75
2023/09/27 02:37:20;;;;;;;16.35;11.35;;;;;;;;;;4956610;28;20043;-75
2023/09/27 02:39:46;;;;;;;17.92;10.68;;;;;;;;;;4957668;29;20035;-75
2023/09/27 02:42:12;;;;;;;15.75;10.07;;;;;;;;;;4960487;28;20042;-75
2023/09/27 02:44:40;;;;;;;16.27;10.23;;;;;;;;;;4945208;29;20027;-74
2023/09/27 02:47:07;;;;;;;20.50;11.32;;;;;;;;;;4960008;28;20055;-75
2023/09/27 02:49:36;;;;;;;16.45;10.63;;;;;;;;;;4956208;28;20047;-75
2023/09/27 02:52:01;;;;;;;;;;;;;;;;;;4936324;28;20036;-75
2023/09/27 02:54:27;;;;;;;19.63;11.00;;;;;;;;;;4920104;29;20271;-74
2023/09/27 02:56:53;;;;;;;19.23;11.32;;;;;;;;;;4936450;29;20499;-75
2023/09/27 02:59:18;;;;;;;18.48;12.00;;;;;;;;;;4948673;29;20023;-73
2023/09/27 03:01:47;;;;;;;17.17;12.13;;;;;;;;;;4940091;29;20047;-74
2023/09/27 03:04:12;;;;;;;;;;;;;;;;;;4939755;29;20034;-74
2023/09/27 03:06:38;;;;;;;18.20;11.63;;;;;;;;;;4955696;28;19910;-74
2023/09/27 03:09:04;;;;;;;19.23;11.05;;;;;;;;;;4956873;28;20037;-73
2023/09/27 03:11:30;;;;;;;19.55;12.18;;;;;;;;;;4955548;28;20031;-73
2023/09/27 03:13:56;;;;;;;22.15;12.70;;;;;;;;;;4955651;29;20043;-75
2023/09/27 03:16:23;;;;;;;18.35;11.60;;;;;;;;;;4954271;28;20071;-75
2023/09/27 03:18:49;;;;;;;21.42;12.07;;;;;;;;;;4955730;29;20455;-74
2023/09/27 03:21:17;;;;;;;24.05;12.50;;;;;;;;;;4956420;29;20031;-75
2023/09/27 03:23:42;;;;;;;16.38;11.70;;;;;;;;;;4955121;28;20058;-74
2023/09/27 03:26:08;;;;;;;19.08;11.30;;;;;;;;;;4956531;28;20062;-74
2023/09/27 03:28:34;;;;;;;26.65;12.65;;;;;;;;;;4955339;29;20042;-75
2023/09/27 03:31:03;;;;;;;21.75;11.23;;;;;;;;;;4956812;28;20027;-74
2023/09/27 03:33:29;;;;;;;20.02;12.50;;;;;;;;;;4934511;28;20079;-74
2023/09/27 03:35:55;;;;;;;22.83;12.45;;;;;;;;;;4937789;29;20038;-74
2023/09/27 03:38:24;;;;;;;25.63;12.27;;;;;;;;;;4920429;29;20148;-75
2023/09/27 03:40:51;;;;;;;18.83;11.25;;;;;;;;;;4920226;29;20064;-74
2023/09/27 03:43:17;;;;;;;23.60;11.43;;;;;;;;;;4936507;29;20028;-75
2023/09/27 03:45:43;;;;;;;18.20;10.77;;;;;;;;;;4935983;29;20035;-75
2023/09/27 03:48:08;;;;;;;17.20;10.52;;;;;;;;;;4935463;29;20510;-75
2023/09/27 03:50:34;;;;;;;21.77;11.20;;;;;;;;;;4936426;29;20042;-74
2023/09/27 03:52:59;;;;;;;19.70;10.23;;;;;;;;;;4936762;29;20039;-75
2023/09/27 03:55:25;;;;;;;22.52;11.90;;;;;;;;;;4920351;29;20066;-76
2023/09/27 03:57:54;;;;;;;25.63;11.80;;;;;;;;;;4920936;29;20033;-75
2023/09/27 04:00:22;;;;;;;20.85;11.32;;;;;;;;;;4904706;29;20035;-74
2023/09/27 04:02:48;;;;;;;22.38;12.60;;;;;;;;;;4920392;29;20038;-75
2023/09/27 04:05:15;;;;;;;18.63;11.43;;;;;;;;;;4938411;28;20071;-75
2023/09/27 04:07:41;;;;;;;22.08;11.45;;;;;;;;;;4937216;29;20537;-75
2023/09/27 04:10:08;;;;;;;17.70;10.77;;;;;;;;;;4975147;23;20050;-79
2023/09/27 04:12:36;;;;;;;17.92;10.75;;;;;;;;;;4983714;28;20030;-79
2023/09/27 04:15:09;;;;;;;17.10;10.57;;;;;;;;;;4997517;28;20042;-80
2023/09/27 04:17:36;;;;;;;17.95;10.93;;;;;;;;;;5006629;28;20025;-80
2023/09/27 04:20:09;;;;;;;21.17;11.45;;;;;;;;;;4991626;28;20065;-79
2023/09/27 04:22:35;;;;;;;23.20;13.57;;;;;;;;;;5003937;28;20042;-79
2023/09/27 04:25:04;;;;;;;20.00;11.95;;;;;;;;;;5011194;28;20045;-80
2023/09/27 04:27:29;;;;;;;17.10;11.70;;;;;;;;;;4989622;28;20053;-79
2023/09/27 04:29:54;;;;;;;20.50;11.65;;;;;;;;;;4987776;28;20063;-80
2023/09/27 04:32:20;;;;;;;21.40;12.10;;;;;;;;;;5010877;28;20046;-79
2023/09/27 04:34:46;;;;;;;18.98;11.93;;;;;;;;;;5011454;28;20030;-81
2023/09/27 04:37:12;;;;;;;21.08;11.35;;;;;;;;;;4984817;28;20042;-80
2023/09/27 04:39:39;;;;;;;18.63;10.60;;;;;;;;;;4994799;28;20141;-80
2023/09/27 04:42:05;;;;;;;20.70;12.25;;;;;;;;;;4987365;28;20030;-79
2023/09/27 04:44:30;;;;;;;19.23;11.50;;;;;;;;;;4995198;28;20038;-78
2023/09/27 04:46:56;;;;;;;16.85;11.45;;;;;;;;;;4993380;28;20038;-79
2023/09/27 04:49:22;;;;;;;25.75;12.77;;;;;;;;;;4978082;28;20074;-79
2023/09/27 04:51:47;;;;;;;21.27;12.00;;;;;;;;;;4994427;28;20376;-80
2023/09/27 04:54:13;;;;;;;19.05;11.93;;;;;;;;;;4994735;28;20034;-78
2023/09/27 04:56:39;;;;;;;27.23;13.20;;;;;;;;;;4994396;28;20099;-80
2023/09/27 04:59:08;;;;;;;26.58;13.10;;;;;;;;;;4978991;28;20038;-78
2023/09/27 05:01:33;;;;;;;20.30;11.88;;;;;;;;;;4978194;28;20141;-80
2023/09/27 05:03:58;;;;;;;21.23;12.82;;;;;;;;;;4994457;28;20030;-79
2023/09/27 05:06:24;;;;;;;19.50;12.18;;;;;;;;;;4994837;28;20032;-80
2023/09/27 05:08:50;;;;;;;22.05;12.95;;;;;;;;;;4995437;28;20038;-79
2023/09/27 05:11:18;;;;;;;23.65;14.32;;;;;;;;;;4995608;28;20042;-78
2023/09/27 05:13:44;;;;;;;20.80;13.73;;;;;;;;;;4979659;28;20374;-79
2023/09/27 05:16:10;;;;;;;24.00;13.15;;;;;;;;;;4998636;28;20042;-79
2023/09/27 05:18:35;;;;;;;22.83;13.23;;;;;;;;;;4983909;28;20038;-80
2023/09/27 05:21:05;;;;;;;23.50;13.35;;;;;;;;;;5002265;28;20053;-81
2023/09/27 05:23:30;;;;;;;26.08;13.60;;;;;;;;;;5000478;28;20493;-78
2023/09/27 05:25:59;;;;;;;21.20;13.23;;;;;;;;;;4996706;28;20034;-79
2023/09/27 05:28:24;;;;;;;21.75;12.85;;;;;;;;;;4996097;28;20053;-80
2023/09/27 05:30:51;;;;;;;22.48;13.20;;;;;;;;;;4995582;28;20466;-81
2023/09/27 05:33:18;;;;;;;25.40;14.90;;;;;;;;;;4996568;28;20211;-81
2023/09/27 05:35:43;;;;;;;25.17;14.38;;;;;;;;;;4999950;28;20034;-80
2023/09/27 05:38:09;;;;;;;25.10;14.23;;;;;;;;;;5001560;28;20042;-81
2023/09/27 05:40:34;;;;;;;22.70;14.20;;;;;;;;;;4998987;28;20053;-79
2023/09/27 05:43:01;;;;;;;27.00;13.70;;;;;;;;;;4998345;28;20122;-80
2023/09/27 05:45:26;;;;;;;20.80;12.52;;;;;;;;;;4981527;28;20038;-79
2023/09/27 05:47:55;;;;;;;30.17;14.07;;;;;;;;;;4983136;28;20030;-80
2023/09/27 05:50:20;;;;;;;27.77;13.48;;;;;;;;;;4967310;28;20123;-79
2023/09/27 05:52:46;;;;;;;20.55;13.07;;;;;;;;;;4979737;28;20052;-80
2023/09/27 05:55:11;;;;;;;24.65;13.18;;;;;;;;;;4978547;28;20049;-79
2023/09/27 05:57:37;;;;;;;22.58;13.20;;;;;;;;;;4980825;28;20042;-79
2023/09/27 06:00:14;;;;;;;29.17;13.73;;;;;;;;;;4946859;28;20037;-79
2023/09/27 06:02:39;;;;;;;23.05;13.48;;;;;;;;;;4966463;28;20035;-80
2023/09/27 06:05:06;;;;;;;23.70;13.40;;;;;;;;;;4962828;28;20171;-79
2023/09/27 06:07:33;;;;;;;27.45;14.20;;;;;;;;;;4980020;28;20579;-79
2023/09/27 06:09:59;;;;;;;28.13;13.95;;;;;;;;;;4978075;28;20035;-79
2023/09/27 06:12:25;;;;;;;28.50;14.27;;;;;;;;;;4979615;28;20086;-79
2023/09/27 06:14:50;;;;;;;39.20;14.65;;;;;;;;;;4977147;28;20023;-79
2023/09/27 06:17:17;;;;;;;25.35;13.30;;;;;;;;;;4978206;28;20042;-80
2023/09/27 06:19:42;;;;;;;26.13;14.50;;;;;;;;;;4978024;28;20031;-80
2023/09/27 06:22:15;;;;;;;28.17;15.13;;;;;;;;;;4961873;28;20475;-79
2023/09/27 06:24:41;;;;;;;27.98;13.48;;;;;;;;;;4961669;28;20027;-80
2023/09/27 06:27:06;;;;;;;25.60;14.15;;;;;;;;;;4945257;28;20071;-78
2023/09/27 06:29:33;;;;;;;22.20;13.98;;;;;;;;;;4977315;28;20038;-78
2023/09/27 06:32:01;;;;;;;31.55;13.82;;;;;;;;;;4978309;28;20491;-79
2023/09/27 06:34:26;;;;;;;22.70;13.23;;;;;;;;;;4959618;28;20035;-80
2023/09/27 06:36:56;;;;;;;24.90;14.07;;;;;;;;;;4993561;28;20109;-79
2023/09/27 06:39:24;;;;;;;25.73;15.00;;;;;;;;;;4977620;28;20122;-80
2023/09/27 06:41:50;;;;;;;24.20;14.35;;;;;;;;;;4945480;28;20038;-80
2023/09/27 06:44:18;;;;;;;21.23;13.57;;;;;;;;;;4961192;28;20395;-79
2023/09/27 06:46:44;;;;;;;24.55;14.50;;;;;;;;;;4992947;28;20026;-79
2023/09/27 06:49:10;;;;;;;20.75;13.60;;;;;;;;;;4976345;28;20172;-79
2023/09/27 06:51:38;;;;;;;22.27;13.60;;;;;;;;;;4977237;28;20367;-79
2023/09/27 06:54:04;;;;;;;26.80;14.68;;;;;;;;;;4978049;28;20039;-79
2023/09/27 06:56:30;;;;;;;32.40;14.27;;;;;;;;;;4960326;28;20050;-79
2023/09/27 06:58:56;;;;;;;30.70;16.05;;;;;;;;;;4977561;28;20545;-78
2023/09/27 07:01:24;;;;;;;22.70;14.02;;;;;;;;;;4977887;28;20109;-79
2023/09/27 07:03:49;;;;;;;23.67;14.25;;;;;;;;;;4944991;28;20090;-78
2023/09/27 07:06:15;;;;;;;33.45;14.75;;;;;;;;;;4979144;28;20034;-78
2023/09/27 07:08:43;;;;;;;22.65;14.55;;;;;;;;;;4989483;28;20030;-80
2023/09/27 07:11:11;;;;;;;24.75;14.88;;;;;;;;;;5000331;28;20508;-80
2023/09/27 07:13:37;;;;;;;24.15;14.07;;;;;;;;;;4998623;28;20041;-80
2023/09/27 07:16:17;;;;;;;20.60;15.10;;;;;;;;;;5000871;28;20402;-80
2023/09/27 07:18:42;;;;;;;34.60;17.60;;;;;;;;;;4996229;28;20038;-78
2023/09/27 07:21:09;;;;;;;24.23;13.73;;;;;;;;;;4996613;28;20030;-79
2023/09/27 07:23:35;;;;;;;22.92;14.30;;;;;;;;;;4995287;28;20023;-80
2023/09/27 07:26:00;;;;;;;23.73;13.52;;;;;;;;;;4995224;28;20113;-80
2023/09/27 07:28:26;;;;;;;24.15;14.32;;;;;;;;;;4980558;28;20042;-81
2023/09/27 07:30:52;;;;;;;23.95;13.95;;;;;;;;;;4980472;28;20390;-80
2023/09/27 07:33:20;;;;;;;24.23;12.90;;;;;;;;;;4963893;28;20030;-81
2023/09/27 07:35:50;;;;;;;27.38;13.18;;;;;;;;;;4996992;28;20027;-81
2023/09/27 07:38:16;;;;;;;18.95;12.43;;;;;;;;;;4997950;28;20018;-80
2023/09/27 07:40:44;;;;;;;23.67;12.93;;;;;;;;;;4995807;28;20161;-79
2023/09/27 07:43:10;;;;;;;21.20;12.82;;;;;;;;;;4994614;28;20610;-81
2023/09/27 07:45:41;;;;;;;20.30;12.23;;;;;;;;;;4965859;28;20045;-81
2023/09/27 07:48:07;;;;;;;19.35;11.93;;;;;;;;;;5007414;28;20406;-80
2023/09/27 07:50:34;;;;;;;19.33;12.68;;;;;;;;;;4989697;28;20089;-80
2023/09/27 07:53:00;;;;;;;18.95;11.43;;;;;;;;;;4975078;28;20058;-81
2023/09/27 07:55:26;;;;;;;20.35;12.65;;;;;;;;;;5010601;28;20045;-81
2023/09/27 07:57:52;;;;;;;24.27;12.10;;;;;;;;;;4976748;28;20049;-81
2023/09/27 08:00:19;;;;;;;20.65;11.88;;;;;;;;;;5006403;28;20038;-81
2023/09/27 08:02:50;;;;;;;16.73;10.75;;;;;;;;;;4996760;28;20198;-81
2023/09/27 08:05:16;;;;;;;19.30;12.07;;;;;;;;;;4995038;28;20034;-80
2023/09/27 08:07:42;;;;;;;23.25;13.10;;;;;;;;;;4979400;28;20402;-79
2023/09/27 08:10:10;;;;;;;18.27;11.93;;;;;;;;;;4998677;28;20034;-80
2023/09/27 08:12:38;;;;;;;21.90;11.20;;;;;;;;;;4980191;28;20038;-81
2023/09/27 08:15:07;;;;;;;28.75;12.75;;;;;;;;;;5000365;28;20510;-81
2023/09/27 08:17:32;;;;;;;;;;;;;;;;;;4985818;28;20031;-79
2023/09/27 08:20:12;;;;;;;21.63;11.65;;;;;;;;;;4963462;28;19920;-80
2023/09/27 08:22:40;;;;;;;22.10;11.60;;;;;;;;;;4989541;28;20034;-80
2023/09/27 08:25:14;;;;;;;22.58;12.00;;;;;;;;;;4967915;28;20095;-80
2023/09/27 08:27:40;;;;;;;21.95;11.98;;;;;;;;;;4966390;28;20026;-81
2023/09/27 08:30:06;;;;;;;15.45;10.50;;;;;;;;;;4964286;28;20038;-80
2023/09/27 08:32:33;;;;;;;18.20;11.60;;;;;;;;;;4973455;28;20065;-80
2023/09/27 08:34:58;;;;;;;20.50;11.95;;;;;;;;;;4978081;28;20124;-81
2023/09/27 08:37:27;;;;;;;18.40;11.13;;;;;;;;;;4991424;28;20054;-81
2023/09/27 08:39:53;;;;;;;17.90;10.48;;;;;;;;;;4976249;28;20668;-81
2023/09/27 08:42:19;;;;;;;19.13;10.85;;;;;;;;;;4973996;28;20104;-80
2023/09/27 08:44:45;;;;;;;18.40;11.00;;;;;;;;;;4961382;28;20026;-80
2023/09/27 08:47:11;;;;;;;18.73;10.50;;;;;;;;;;4995975;28;20100;-81
2023/09/27 08:49:37;;;;;;;16.02;10.38;;;;;;;;;;4995383;28;20038;-79
2023/09/27 08:52:02;;;;;;;23.00;10.57;;;;;;;;;;4993703;28;20039;-80
2023/09/27 08:54:28;;;;;;;15.65;9.52;;;;;;;;;;4973893;28;20087;-81
2023/09/27 08:56:53;;;;;;;14.88;9.10;;;;;;;;;;4977393;28;20374;-79
2023/09/27 08:59:20;;;;;;;19.48;9.52;;;;;;;;;;4994147;28;20027;-81
2023/09/27 09:01:46;;;;;;;21.40;11.88;;;;;;;;;;4994073;28;20038;-81
2023/09/27 09:04:12;;;;;;;23.77;13.10;;;;;;;;;;4994377;28;20027;-80
2023/09/27 09:06:38;;;;;;;17.38;9.98;;;;;;;;;;4990154;28;20027;-80
2023/09/27 09:09:10;;;;;;;15.10;10.70;;;;;;;;;;4976402;28;20113;-81
2023/09/27 09:11:38;;;;;;;16.95;10.57;;;;;;;;;;4980103;28;20031;-81
2023/09/27 09:14:04;;;;;;;20.30;11.20;;;;;;;;;;4988271;28;20038;-81
2023/09/27 09:16:44;;;;;;;18.70;10.48;;;;;;;;;;5013767;28;20080;-79
2023/09/27 09:19:16;;;;;;;18.48;10.63;;;;;;;;;;4968679;28;20026;-79
2023/09/27 09:21:43;;;;;;;16.75;10.48;;;;;;;;;;4966052;28;20094;-81
2023/09/27 09:24:10;;;;;;;;;;;;;;;;;;5000520;28;20033;-81
2023/09/27 09:26:35;;;;;;;17.77;10.60;;;;;;;;;;4990918;28;19953;-81
2023/09/27 09:29:02;;;;;;;17.33;10.38;;;;;;;;;;4991575;28;20104;-81
2023/09/27 09:31:28;;;;;;;20.88;10.32;;;;;;;;;;4993088;28;20092;-80
2023/09/27 09:34:03;;;;;;;16.08;9.68;;;;;;;;;;5011602;28;20039;-79
2023/09/27 09:36:29;;;;;;;25.95;10.63;;;;;;;;;;5012802;28;20042;-80
2023/09/27 09:39:03;;;;;;;15.15;10.25;;;;;;;;;;4995962;28;20058;-80
2023/09/27 09:41:45;;;;;;;16.83;11.18;;;;;;;;;;5005004;28;20022;-82
2023/09/27 09:44:20;;;;;;;18.70;10.13;;;;;;;;;;4982259;28;20041;-81
2023/09/27 09:46:47;;;;;;;18.05;8.68;;;;;;;;;;4997696;28;20027;-81
2023/09/27 09:49:16;;;;;;;18.88;10.20;;;;;;;;;;4981159;28;20453;-81
2023/09/27 09:51:46;;;;;;;16.67;8.73;;;;;;;;;;4996867;28;20042;-82
2023/09/27 09:54:13;;;;;;;16.90;8.82;;;;;;;;;;4995880;28;20463;-82
2023/09/27 09:56:39;;;;;;;17.33;9.88;;;;;;;;;;4991291;28;20038;-82
2023/09/27 09:59:07;;;;;;;17.60;9.15;;;;;;;;;;4979501;28;20379;-81
2023/09/27 10:01:37;;;;;;;14.45;8.27;;;;;;;;;;4979618;28;20022;-80
2023/09/27 10:04:03;;;;;;;14.80;8.38;;;;;;;;;;4975925;28;20122;-79
2023/09/27 10:06:29;;;;;;;15.45;8.63;;;;;;;;;;4960632;28;20030;-81
2023/09/27 10:09:01;;;;;;;13.52;8.82;;;;;;;;;;4979330;28;20146;-81
2023/09/27 10:11:36;;;;;;;15.25;9.35;;;;;;;;;;4980993;28;20051;-80
2023/09/27 10:14:05;;;;;;;15.90;8.70;;;;;;;;;;4975013;28;20072;-80
2023/09/27 10:16:31;;;;;;;13.95;7.65;;;;;;;;;;4965023;28;20114;-80
2023/09/27 10:18:57;;;;;;;13.80;8.20;;;;;;;;;;4966504;28;20062;-79
2023/09/27 10:21:22;;;;;;;15.95;9.40;;;;;;;;;;4969410;28;20305;-80
2023/09/27 10:23:49;;;;;;;143.38;102.55;;;;;;;;;;4953310;29;20039;-84
2023/09/27 10:26:31;;;;;;;62.42;41.53;;;;;;;;;;4966471;29;20035;-82
2023/09/27 10:29:06;;;;;;;19.95;10.43;;;;;;;;;;4936129;29;20045;-82
2023/09/27 10:31:33;;;;;;;18.42;9.32;;;;;;;;;;4956562;29;20039;-82
2023/09/27 10:34:01;;;;;;;16.58;8.80;;;;;;;;;;4959101;29;20023;-82
2023/09/27 10:36:28;;;;;;;17.50;9.02;;;;;;;;;;4976400;28;20023;-82
2023/09/27 10:38:54;;;;;;;17.60;8.45;;;;;;;;;;4974614;29;20039;-81
2023/09/27 10:41:32;;;;;;;14.43;7.43;;;;;;;;;;4952327;29;20111;-81
2023/09/27 10:44:02;;;;;;;14.98;7.10;;;;;;;;;;4963491;29;20031;-82
2023/09/27 10:46:40;;;;;;;16.45;8.05;;;;;;;;;;4962845;29;20529;-82
2023/09/27 10:49:06;;;;;;;12.55;7.10;;;;;;;;;;4946797;29;20039;-82
2023/09/27 10:51:35;;;;;;;15.23;7.43;;;;;;;;;;4941599;29;20039;-82
2023/09/27 10:54:08;;;;;;;14.35;7.90;;;;;;;;;;4943026;29;20035;-82
2023/09/27 10:56:34;;;;;;;14.13;7.20;;;;;;;;;;4942091;29;20054;-81
2023/09/27 10:59:00;;;;;;;14.35;7.00;;;;;;;;;;4940788;28;20043;-81
2023/09/27 11:01:29;;;;;;;15.90;6.85;;;;;;;;;;4946360;29;20042;-82
2023/09/27 11:04:00;;;;;;;16.30;7.50;;;;;;;;;;4961445;28;20035;-83
2023/09/27 11:06:27;;;;;;;14.32;8.18;;;;;;;;;;4946594;29;20031;-81
2023/09/27 11:09:03;;;;;;;16.60;7.63;;;;;;;;;;4956645;29;20114;-81
2023/09/27 11:11:28;;;;;;;14.05;8.27;;;;;;;;;;4975083;28;20043;-81
2023/09/27 11:13:54;;;;;;;12.93;8.32;;;;;;;;;;4937293;29;20057;-79
2023/09/27 11:16:19;;;;;;;14.50;7.15;;;;;;;;;;4965494;28;20039;-79
2023/09/27 11:18:46;;;;;;;16.55;7.47;;;;;;;;;;4963884;28;20035;-82
2023/09/27 11:21:12;;;;;;;11.60;7.40;;;;;;;;;;4963528;29;20031;-81
2023/09/27 11:23:53;;;;;;;14.43;6.43;;;;;;;;;;4946585;29;20078;-79
2023/09/27 11:26:22;;;;;;;18.38;6.70;;;;;;;;;;4928760;29;20038;-80
2023/09/27 11:28:58;;;;;;;11.27;6.00;;;;;;;;;;4958579;28;20040;-81
2023/09/27 11:31:26;;;;;;;14.07;7.53;;;;;;;;;;4958446;28;20062;-80
2023/09/27 11:33:52;;;;;;;14.98;6.75;;;;;;;;;;4926772;29;20039;-80
2023/09/27 11:36:18;;;;;;;15.15;6.35;;;;;;;;;;4958189;28;20452;-80
2023/09/27 11:38:48;;;;;;;12.43;6.43;;;;;;;;;;4959805;28;20030;-80
2023/09/27 11:41:16;;;;;;;15.82;5.93;;;;;;;;;;4942022;29;20086;-80
2023/09/27 11:43:43;;;;;;;15.63;6.05;;;;;;;;;;4959530;28;20038;-81
2023/09/27 11:46:09;;;;;;;14.52;6.43;;;;;;;;;;4958871;29;20027;-80
2023/09/27 11:48:34;;;;;;;14.82;8.07;;;;;;;;;;4960388;28;20134;-80
2023/09/27 11:51:00;;;;;;;10.98;6.40;;;;;;;;;;4963185;29;20042;-81
2023/09/27 11:53:26;;;;;;;11.55;6.30;;;;;;;;;;4947682;29;20031;-79
2023/09/27 11:55:55;;;;;;;12.02;5.80;;;;;;;;;;4963897;29;20027;-80
2023/09/27 11:58:22;;;;;;;11.30;5.80;;;;;;;;;;4950340;29;20067;-80
2023/09/27 12:00:48;;;;;;;18.35;6.68;;;;;;;;;;4982629;28;20051;-80
2023/09/27 12:03:14;;;;;;;10.93;6.15;;;;;;;;;;4965370;28;20035;-81
2023/09/27 12:05:39;;;;;;;19.67;5.95;;;;;;;;;;4951775;29;20031;-80
2023/09/27 12:08:05;;;;;;;9.88;5.70;;;;;;;;;;4968092;28;20027;-80
2023/09/27 12:10:31;;;;;;;10.60;5.90;;;;;;;;;;4968502;28;20058;-80
2023/09/27 12:13:00;;;;;;;9.60;5.47;;;;;;;;;;4934096;28;20051;-80
2023/09/27 12:15:26;;;;;;;13.82;5.97;;;;;;;;;;4958189;29;20103;-80
2023/09/27 12:17:52;;;;;;;10.43;5.60;;;;;;;;;;4958571;28;20067;-79
2023/09/27 12:20:17;;;;;;;8.45;5.68;;;;;;;;;;4960302;28;20035;-81
2023/09/27 12:22:43;;;;;;;10.43;5.85;;;;;;;;;;4966440;28;20028;-82
2023/09/27 12:25:09;;;;;;;10.70;5.30;;;;;;;;;;4931631;29;20077;-81
2023/09/27 12:27:34;;;;;;;10.43;5.05;;;;;;;;;;4948556;28;20035;-81
2023/09/27 12:30:00;;;;;;;15.63;5.55;;;;;;;;;;4965231;29;20046;-80
2023/09/27 12:32:26;;;;;;;11.52;5.40;;;;;;;;;;4967060;28;20053;-81
2023/09/27 12:34:55;;;;;;;8.07;5.00;;;;;;;;;;4968171;28;20039;-80
2023/09/27 12:37:20;;;;;;;10.32;5.13;;;;;;;;;;4971415;29;20028;-80
2023/09/27 12:39:46;;;;;;;13.43;4.97;;;;;;;;;;4970954;29;20035;-80
2023/09/27 12:42:13;;;;;;;12.80;5.05;;;;;;;;;;4967366;29;20121;-80
2023/09/27 12:44:38;;;;;;;19.17;6.03;;;;;;;;;;4965663;28;20038;-79
2023/09/27 12:47:04;;;;;;;9.93;5.00;;;;;;;;;;4948692;29;20027;-80
2023/09/27 12:49:31;;;;;;;10.82;5.63;;;;;;;;;;4932438;28;20130;-81
2023/09/27 12:51:59;;;;;;;16.10;5.72;;;;;;;;;;4949032;29;20031;-81
2023/09/27 12:54:26;;;;;;;12.18;5.47;;;;;;;;;;4948769;29;20039;-81
2023/09/27 12:56:51;;;;;;;13.10;5.13;;;;;;;;;;4964266;28;20046;-81
2023/09/27 12:59:17;;;;;;;12.82;4.70;;;;;;;;;;4965340;28;20058;-80
2023/09/27 13:01:43;;;;;;;10.38;5.05;;;;;;;;;;4967661;29;20034;-80
2023/09/27 13:04:09;;;;;;;11.85;5.00;;;;;;;;;;4971559;28;20047;-82
2023/09/27 13:06:34;;;;;;;10.82;5.30;;;;;;;;;;4970439;28;20042;-80
2023/09/27 13:09:00;;;;;;;10.95;5.05;;;;;;;;;;4984084;28;20192;-81
2023/09/27 13:11:26;;;;;;;12.45;5.00;;;;;;;;;;4976352;28;20039;-81
2023/09/27 13:13:51;;;;;;;18.08;4.93;;;;;;;;;;4987762;28;20034;-81
2023/09/27 13:16:17;;;;;;;12.63;4.63;;;;;;;;;;4968761;29;20063;-80
2023/09/27 13:18:43;;;;;;;14.20;5.57;;;;;;;;;;4963709;29;20091;-82
2023/09/27 13:21:11;;;;;;;12.45;5.20;;;;;;;;;;4963493;29;20125;-80
2023/09/27 13:23:37;;;;;;;13.57;5.03;;;;;;;;;;4950097;29;20523;-81
2023/09/27 13:26:03;;;;;;;10.07;4.50;;;;;;;;;;4967800;29;20040;-81
2023/09/27 13:28:28;;;;;;;17.60;4.97;;;;;;;;;;4963455;28;20149;-81
2023/09/27 13:30:54;;;;;;;9.88;5.10;;;;;;;;;;4933476;29;20451;-81
2023/09/27 13:33:20;;;;;;;11.05;5.43;;;;;;;;;;4973496;28;20051;-80
2023/09/27 13:35:46;;;;;;;10.23;4.93;;;;;;;;;;4945039;29;20063;-81
2023/09/27 13:38:11;;;;;;;8.30;4.63;;;;;;;;;;4947094;29;20098;-81
2023/09/27 13:40:37;;;;;;;8.93;4.50;;;;;;;;;;4964253;28;20035;-81
2023/09/27 13:43:03;;;;;;;10.93;4.75;;;;;;;;;;4977418;28;20095;-81
2023/09/27 13:45:29;;;;;;;6.38;4.82;;;;;;;;;;4961695;28;20027;-81
2023/09/27 13:47:54;;;;;;;9.75;5.63;;;;;;;;;;4974724;28;20550;-80
2023/09/27 13:50:20;;;;;;;13.57;5.75;;;;;;;;;;4959347;29;20035;-81
2023/09/27 13:52:46;;;;;;;11.27;5.07;;;;;;;;;;4957968;28;20038;-79
2023/09/27 13:55:12;;;;;;;9.27;4.45;;;;;;;;;;4941732;29;20039;-80
2023/09/27 13:57:38;;;;;;;6.63;4.43;;;;;;;;;;4962749;28;20098;-80
2023/09/27 14:00:04;;;;;;;12.80;5.20;;;;;;;;;;4961138;29;20095;-80
2023/09/27 14:02:34;;;;;;;11.25;5.10;;;;;;;;;;4978230;28;20031;-81
2023/09/27 14:05:00;;;;;;;10.98;4.38;;;;;;;;;;4962674;29;20082;-82
2023/09/27 14:07:26;;;;;;;8.57;4.60;;;;;;;;;;4963883;28;20031;-79
2023/09/27 14:09:52;;;;;;;9.88;5.20;;;;;;;;;;4948154;29;20031;-81
2023/09/27 14:12:19;;;;;;;14.48;5.10;;;;;;;;;;4963735;29;20372;-81
2023/09/27 14:14:50;;;;;;;10.05;4.75;;;;;;;;;;4965337;28;20031;-80
2023/09/27 14:17:20;;;;;;;;;;;;;;;;;;4982299;28;20071;-82
2023/09/27 14:19:45;;;;;;;9.05;4.60;;;;;;;;;;4967915;28;19915;-83
2023/09/27 14:22:11;;;;;;;17.27;5.60;;;;;;;;;;4969966;28;20094;-80